Time;durP1;ratioP1;P1;durP2;ratioP2;P2;SDS_P1;SDS_P2;PMS_P1;PMS_P2;Temp;Humidity;BMP_temperature;BMP_pressure;BME280_temperature;BME280_humidity;BME280_pressure;Samples;Min_cycle;Max_cycle;Signal;HPM_P1;HPM_P2
2023/12/11 00:02:09;;;;;;;2.55;1.45;;;10.20;33.90;;;8.91;100.00;99494.75;4969083;28;20055;-81
2023/12/11 00:04:36;;;;;;;5.03;1.42;;;10.20;31.50;;;8.96;100.00;99493.75;4967318;28;20043;-79
2023/12/11 00:07:03;;;;;;;2.22;1.50;;;10.20;31.90;;;8.96;100.00;99512.13;4969236;28;20532;-81
2023/12/11 00:09:30;;;;;;;4.30;2.80;;;10.30;32.80;;;9.05;100.00;99512.69;4968938;28;20055;-80
2023/12/11 00:11:57;;;;;;;4.47;1.45;;;10.30;31.40;;;9.08;100.00;99525.69;4985819;28;20047;-80
2023/12/11 00:14:24;;;;;;;2.78;1.60;;;10.30;32.30;;;9.02;100.00;99496.16;4984734;28;20510;-79
2023/12/11 00:16:51;;;;;;;4.15;1.73;;;10.30;29.60;;;9.12;100.00;99508.09;4986769;28;20047;-78
2023/12/11 00:19:22;;;;;;;3.92;2.10;;;10.40;30.00;;;9.22;100.00;99525.28;4986797;28;20488;-81
2023/12/11 00:21:49;;;;;;;;;;;10.30;30.00;;;9.02;100.00;99483.06;4987464;28;20039;-82
2023/12/11 00:24:16;;;;;;;3.28;1.60;;;10.30;28.90;;;8.93;100.00;99481.59;4986043;28;20001;-78
2023/12/11 00:26:43;;;;;;;3.05;1.70;;;10.40;33.70;;;9.04;100.00;99495.22;4988317;28;20448;-81
2023/12/11 00:29:10;;;;;;;2.65;1.75;;;10.40;31.30;;;9.12;100.00;99513.34;4987803;28;20051;-81
2023/12/11 00:31:39;;;;;;;5.70;1.77;;;10.40;31.40;;;9.24;100.00;99519.97;4988117;28;20050;-82
2023/12/11 00:34:06;;;;;;;2.83;1.70;;;10.80;34.30;;;8.74;100.00;99437.56;4968821;28;20055;-77
2023/12/11 00:36:33;;;;;;;3.08;1.40;;;10.50;33.10;;;9.35;100.00;99551.13;4986750;28;20110;-82
2023/12/11 00:39:00;;;;;;;2.88;1.60;;;10.50;35.10;;;8.79;100.00;99443.53;4975012;28;20637;-80
2023/12/11 00:41:27;;;;;;;6.38;2.08;;;10.50;34.60;;;9.31;100.00;99525.88;4988725;28;20398;-80
2023/12/11 00:43:55;;;;;;;2.95;1.52;;;10.60;35.40;;;9.50;100.00;99542.75;4977254;28;20587;-79
2023/12/11 00:46:23;;;;;;;2.45;1.50;;;10.60;36.90;;;9.29;100.00;99509.31;4989270;28;20154;-81
2023/12/11 00:48:50;;;;;;;3.17;1.75;;;10.60;35.90;;;9.31;100.00;99508.38;4989794;28;20102;-81
2023/12/11 00:51:19;;;;;;;3.28;1.70;;;10.70;34.60;;;9.28;100.00;99503.19;4987941;28;20046;-80
2023/12/11 00:53:48;;;;;;;1.83;1.40;;;10.70;35.10;;;9.37;100.00;99507.31;4981006;28;20157;-79
2023/12/11 00:56:15;;;;;;;3.50;1.63;;;10.70;35.90;;;9.35;100.00;99504.75;4984049;28;20045;-79
2023/12/11 00:58:43;;;;;;;2.33;1.42;;;10.80;35.90;;;9.49;100.00;99517.41;4968418;28;20513;-78
2023/12/11 01:01:10;;;;;;;2.58;1.40;;;10.80;35.90;;;9.59;100.00;99528.44;4985551;28;20042;-81
2023/12/11 01:03:38;;;;;;;2.78;1.65;;;10.80;35.80;;;9.47;100.00;99507.88;4986075;28;20051;-78
2023/12/11 01:06:06;;;;;;;3.47;1.55;;;10.80;37.90;;;8.94;100.00;99421.19;4986121;28;20764;-80
2023/12/11 01:08:38;;;;;;;2.97;1.60;;;10.80;38.80;;;9.64;100.00;99518.66;4969331;28;20560;-78
2023/12/11 01:11:07;;;;;;;4.05;1.83;;;10.80;40.20;;;9.69;100.00;99539.53;4982995;28;20142;-80
2023/12/11 01:13:34;;;;;;;2.90;1.65;;;10.80;41.50;;;9.68;100.00;99526.44;4982766;28;20058;-79
2023/12/11 01:16:01;;;;;;;5.07;1.60;;;10.80;44.30;;;9.46;100.00;99485.16;4986062;28;20428;-79
2023/12/11 01:18:29;;;;;;;2.13;1.15;;;12.00;43.90;;;9.60;100.00;99498.69;4986150;28;20114;-79
2023/12/11 01:20:56;;;;;;;1.42;1.30;;;10.90;44.00;;;9.71;100.00;99523.69;4986021;28;20114;-79
2023/12/11 01:23:25;;;;;;;2.20;1.42;;;10.90;45.00;;;9.75;100.00;99543.69;4985747;28;20046;-79
2023/12/11 01:25:52;;;;;;;2.80;1.50;;;10.90;44.00;;;9.61;100.00;99515.28;4985909;28;20047;-79
2023/12/11 01:28:19;;;;;;;2.13;1.40;;;10.90;45.80;;;9.45;100.00;99492.16;4985760;28;20050;-79
2023/12/11 01:30:46;;;;;;;1.88;1.30;;;10.90;47.30;;;9.67;100.00;99515.06;4986088;28;20041;-79
2023/12/11 01:33:13;;;;;;;1.85;1.30;;;10.90;48.50;;;9.78;100.00;99533.94;4986382;28;20050;-79
2023/12/11 01:35:41;;;;;;;4.07;1.50;;;10.00;49.20;;;9.53;100.00;99491.06;4969412;28;20145;-79
2023/12/11 01:38:08;;;;;;;5.60;1.80;;;10.90;48.00;;;9.45;100.00;99481.66;4986123;28;20054;-78
2023/12/11 01:40:35;;;;;;;2.88;1.60;;;10.90;48.70;;;9.69;100.00;99510.63;4986092;28;20049;-79
2023/12/11 01:43:14;;;;;;;3.20;1.50;;;10.80;51.50;;;9.70;100.00;99532.50;4986196;28;20054;-79
2023/12/11 01:46:09;;;;;;;4.75;1.52;;;10.80;51.30;;;9.70;100.00;99532.50;4985796;28;20576;-79
2023/12/11 01:48:37;;;;;;;2.22;1.40;;;10.80;51.20;;;9.51;100.00;99493.72;4985736;28;20682;-78
2023/12/11 01:51:07;;;;;;;2.17;2.00;;;10.80;51.80;;;9.71;100.00;99514.06;4986051;28;20054;-79
2023/12/11 01:53:35;;;;;;;2.58;1.40;;;10.80;52.70;;;9.22;100.00;99432.56;4970052;28;20057;-78
2023/12/11 01:56:02;;;;;;;4.65;1.40;;;10.80;51.90;;;9.58;100.00;99481.25;4970895;28;20070;-78
2023/12/11 01:58:30;;;;;;;3.15;1.75;;;10.80;53.10;;;9.65;100.00;99504.63;4985887;28;20093;-79
2023/12/11 02:00:58;;;;;;;4.70;1.88;;;10.80;51.70;;;9.53;100.00;99485.81;4969623;28;20485;-80
2023/12/11 02:03:25;;;;;;;3.10;1.45;;;10.80;52.40;;;9.60;100.00;99503.06;4985363;28;20081;-78
2023/12/11 02:05:52;;;;;;;2.03;1.80;;;10.70;53.30;;;9.35;100.00;99452.22;4985341;28;20050;-79
2023/12/11 02:08:19;;;;;;;3.33;1.60;;;10.80;53.60;;;9.65;100.00;99511.63;4985638;28;20058;-78
2023/12/11 02:10:47;;;;;;;2.78;1.40;;;10.70;53.70;;;9.68;100.00;99518.56;4949310;28;20055;-78
2023/12/11 02:13:14;;;;;;;3.50;1.30;;;10.70;55.00;;;9.60;100.00;99508.31;4981755;28;20047;-78
2023/12/11 02:15:43;;;;;;;3.10;1.63;;;10.70;52.80;;;9.51;100.00;99507.69;4984979;28;20038;-79
2023/12/11 02:18:13;;;;;;;3.22;1.67;;;10.70;56.40;;;9.53;100.00;99499.78;4985403;28;20074;-79
2023/12/11 02:20:42;;;;;;;4.18;1.70;;;10.70;56.70;;;9.53;100.00;99512.91;4985053;28;20039;-77
2023/12/11 02:23:37;;;;;;;3.50;1.60;;;10.80;57.60;;;9.58;100.00;99528.53;4969275;28;20046;-78
2023/12/11 02:26:15;;;;;;;3.80;1.48;;;10.70;58.60;;;9.57;100.00;99514.50;4971820;28;20197;-79
2023/12/11 02:28:43;;;;;;;3.58;1.92;;;10.70;59.70;;;9.46;100.00;99490.41;4969201;28;20118;-79
2023/12/11 02:31:10;;;;;;;3.95;1.70;;;10.80;59.00;;;9.60;100.00;99503.06;4984829;28;20057;-78
2023/12/11 02:33:38;;;;;;;5.10;1.60;;;10.70;59.10;;;9.55;100.00;99515.50;4984808;28;20086;-78
2023/12/11 02:36:06;;;;;;;4.10;1.65;;;10.70;60.00;;;9.36;100.00;99495.06;4984177;28;20552;-77
2023/12/11 02:38:33;;;;;;;3.05;1.90;;;10.70;61.50;;;9.49;100.00;99492.91;4985869;28;20533;-78
2023/12/11 02:41:00;;;;;;;3.55;1.95;;;10.70;61.20;;;9.54;100.00;99504.13;4969613;28;20051;-79
2023/12/11 02:43:27;;;;;;;3.97;2.30;;;10.70;60.70;;;9.45;100.00;99467.69;4968939;28;20137;-78
2023/12/11 02:45:54;;;;;;;2.63;1.50;;;10.70;60.00;;;9.48;100.00;99493.84;4968744;28;20450;-79
2023/12/11 02:48:22;;;;;;;3.35;1.63;;;10.70;60.80;;;9.47;100.00;99482.47;4984717;28;20049;-78
2023/12/11 02:50:49;;;;;;;2.58;1.60;;;10.60;61.90;;;9.33;100.00;99475.06;4968750;28;20057;-79
2023/12/11 02:53:16;;;;;;;2.58;2.05;;;10.60;63.80;;;9.18;100.00;99460.66;4968451;28;20190;-79
2023/12/11 02:55:43;;;;;;;1.73;1.60;;;10.60;65.20;;;9.33;100.00;99484.69;4967866;28;20057;-79
2023/12/11 02:58:10;;;;;;;4.18;1.30;;;10.60;65.70;;;9.22;100.00;99469.28;4953306;28;20420;-78
2023/12/11 03:00:37;;;;;;;4.63;1.70;;;10.60;66.80;;;9.31;100.00;99483.88;4952642;28;20043;-78
2023/12/11 03:03:07;;;;;;;2.28;1.52;;;10.50;66.10;;;9.41;100.00;99503.69;4968876;28;20177;-79
2023/12/11 03:05:34;;;;;;;2.92;1.60;;;10.40;65.90;;;9.31;100.00;99476.88;4967841;28;20118;-79
2023/12/11 03:08:05;;;;;;;1.90;1.25;;;10.40;67.00;;;9.28;100.00;99487.44;4985043;28;20158;-79
2023/12/11 03:10:32;;;;;;;3.22;1.42;;;10.50;67.00;;;9.30;100.00;99474.28;4952605;28;20058;-78
2023/12/11 03:13:00;;;;;;;4.30;1.35;;;10.60;68.10;;;8.93;100.00;99410.75;4985094;28;20054;-78
2023/12/11 03:15:27;;;;;;;5.15;1.40;;;10.60;68.50;;;9.39;100.00;99486.25;4967077;28;20042;-78
2023/12/11 03:17:54;;;;;;;1.80;1.20;;;10.50;69.70;;;9.27;100.00;99467.38;4952579;28;20453;-78
2023/12/11 03:20:22;;;;;;;3.33;1.55;;;10.50;70.50;;;9.31;100.00;99473.38;4968485;28;20073;-79
2023/12/11 03:22:51;;;;;;;1.83;1.40;;;10.50;71.50;;;9.38;100.00;99477.53;4968604;28;20167;-78
2023/12/11 03:25:19;;;;;;;5.15;1.23;;;10.50;72.00;;;9.43;100.00;99475.59;4961457;28;20055;-79
2023/12/11 03:27:46;;;;;;;3.47;1.30;;;10.50;70.10;;;9.42;100.00;99480.88;4984240;28;20035;-79
2023/12/11 03:30:13;;;;;;;2.45;1.08;;;10.50;71.50;;;9.17;100.00;99437.94;4969426;28;20059;-79
2023/12/11 03:32:40;;;;;;;3.38;1.15;;;10.40;75.80;;;9.19;100.00;99458.91;4966719;28;20105;-78
2023/12/11 03:35:07;;;;;;;1.70;1.10;;;10.40;78.30;;;9.16;100.00;99443.25;4966963;28;20050;-79
2023/12/11 03:37:34;;;;;;;2.33;1.33;;;10.40;78.20;;;9.03;100.00;99412.16;4967657;28;20160;-78
2023/12/11 03:40:02;;;;;;;1.45;1.23;;;10.40;78.30;;;9.32;100.00;99449.72;4968240;28;20489;-79
2023/12/11 03:42:29;;;;;;;1.20;1.10;;;10.50;78.60;;;9.22;100.00;99435.16;4967457;28;20059;-78
2023/12/11 03:44:57;;;;;;;2.60;1.30;;;10.40;78.70;;;9.20;100.00;99431.75;4983954;28;20117;-79
2023/12/11 03:47:24;;;;;;;2.85;1.38;;;10.40;79.00;;;9.05;100.00;99406.84;4984627;28;20047;-78
2023/12/11 03:49:51;;;;;;;1.33;1.23;;;10.30;80.20;;;9.19;100.00;99419.53;4975286;28;20055;-79
2023/12/11 03:52:18;;;;;;;1.17;1.00;;;10.40;82.10;;;9.12;100.00;99412.75;4967900;28;20158;-79
2023/12/11 03:54:46;;;;;;;1.33;1.20;;;10.40;80.80;;;9.26;100.00;99438.56;4982412;28;20051;-78
2023/12/11 03:57:13;;;;;;;2.17;1.20;;;10.50;82.30;;;9.14;100.00;99418.84;4967572;28;20047;-79
2023/12/11 03:59:41;;;;;;;1.70;1.05;;;10.50;85.10;;;9.31;100.00;99447.13;4983574;28;20089;-79
2023/12/11 04:02:08;;;;;;;2.22;1.25;;;10.40;86.00;;;9.31;100.00;99449.75;4983565;28;20504;-78
2023/12/11 04:04:35;;;;;;;1.13;1.10;;;10.40;85.40;;;9.33;100.00;99430.44;4966180;28;20142;-79
2023/12/11 04:07:03;;;;;;;1.67;0.95;;;10.30;86.40;;;9.17;100.00;99408.22;4983394;28;20162;-79
2023/12/11 04:09:30;;;;;;;4.05;1.17;;;10.50;86.20;;;9.34;100.00;99432.13;4951134;28;20405;-79
2023/12/11 04:11:57;;;;;;;1.27;1.17;;;10.50;86.00;;;9.39;100.00;99444.25;4967143;28;20050;-79
2023/12/11 04:14:24;;;;;;;1.23;1.10;;;10.60;88.00;;;9.38;100.00;99432.91;4966066;28;20046;-79
2023/12/11 04:16:51;;;;;;;1.67;1.45;;;10.50;87.60;;;9.26;100.00;99421.03;4983012;28;20115;-79
2023/12/11 04:19:18;;;;;;;1.20;1.10;;;10.50;87.60;;;9.48;100.00;99447.41;4963919;28;20098;-79
2023/12/11 04:21:46;;;;;;;1.25;1.00;;;10.50;86.70;;;9.34;100.00;99432.13;4983100;28;20083;-78
2023/12/11 04:24:13;;;;;;;1.90;1.02;;;10.60;86.20;;;9.44;100.00;99445.81;4983262;28;20045;-78
2023/12/11 04:26:41;;;;;;;1.67;1.20;;;10.60;86.30;;;9.25;100.00;99408.81;4959771;28;20050;-78
2023/12/11 04:29:08;;;;;;;2.35;1.20;;;10.70;86.00;;;9.43;100.00;99449.34;4966926;28;20420;-78
2023/12/11 04:31:35;;;;;;;1.95;1.00;;;10.60;87.60;;;9.46;100.00;99448.41;4983312;28;20054;-78
2023/12/11 04:34:03;;;;;;;1.35;1.20;;;10.60;89.20;;;9.45;100.00;99452.78;4980552;28;20572;-78
2023/12/11 04:36:30;;;;;;;1.42;1.23;;;10.60;87.50;;;9.50;100.00;99440.34;4966554;28;20047;-79
2023/12/11 04:38:57;;;;;;;1.13;1.00;;;10.60;87.70;;;9.37;100.00;99420.69;4982987;28;20724;-80
2023/12/11 04:41:24;;;;;;;1.98;1.13;;;10.70;86.80;;;9.53;100.00;99444.63;4966412;28;20039;-79
2023/12/11 04:43:51;;;;;;;1.70;1.20;;;10.70;86.80;;;9.42;100.00;99426.63;4966245;28;20121;-78
2023/12/11 04:46:18;;;;;;;2.25;1.25;;;10.70;84.80;;;9.53;100.00;99452.50;4981682;28;20046;-78
2023/12/11 04:48:45;;;;;;;2.47;1.20;;;10.60;83.20;;;9.49;100.00;99441.25;4966690;28;20111;-78
2023/12/11 04:51:14;;;;;;;1.88;1.20;;;10.60;83.80;;;9.53;100.00;99434.13;4970739;28;20560;-79
2023/12/11 04:53:41;;;;;;;2.60;1.20;;;10.70;82.80;;;9.43;100.00;99409.09;4986170;28;20058;-79
2023/12/11 04:56:08;;;;;;;1.70;1.40;;;11.00;83.20;;;9.43;100.00;99401.22;4979255;28;20473;-80
2023/12/11 04:58:35;;;;;;;3.30;1.60;;;10.80;81.60;;;9.59;100.00;99409.44;4970954;28;20105;-78
2023/12/11 05:01:03;;;;;;;1.67;1.35;;;10.80;79.60;;;9.65;100.00;99424.94;4984929;28;20493;-78
2023/12/11 05:03:30;;;;;;;1.65;1.48;;;10.80;78.30;;;9.68;100.00;99416.13;4986812;28;20043;-80
2023/12/11 05:05:57;;;;;;;2.58;1.40;;;10.90;76.90;;;9.34;100.00;99369.13;4987096;28;20465;-82
2023/12/11 05:08:27;;;;;;;1.88;1.38;;;10.90;75.10;;;9.78;100.00;99422.78;4970652;28;20050;-80
2023/12/11 05:10:56;;;;;;;3.20;1.40;;;11.10;72.10;;;9.90;100.00;99435.44;4982904;28;20101;-80
2023/12/11 05:13:24;;;;;;;1.83;1.40;;;11.00;68.80;;;9.88;100.00;99420.66;4971130;28;20042;-80
2023/12/11 05:15:53;;;;;;;2.80;2.33;;;11.00;66.10;;;9.76;100.00;99409.69;4963746;28;20050;-83
2023/12/11 05:18:21;;;;;;;4.13;2.15;;;11.10;62.30;;;9.31;100.00;99329.00;4964909;28;20051;-81
2023/12/11 05:20:48;;;;;;;6.15;1.90;;;11.10;58.20;;;10.02;100.00;99396.50;4953226;28;20035;-80
2023/12/11 05:23:15;;;;;;;2.22;1.48;;;11.10;54.40;;;9.56;100.00;99325.50;4971407;28;20707;-81
2023/12/11 05:25:42;;;;;;;2.15;1.27;;;11.20;52.30;;;9.53;100.00;99329.09;4970542;28;20074;-79
2023/12/11 05:28:09;;;;;;;4.88;1.58;;;11.20;52.50;;;9.96;100.00;99383.59;4987735;28;20051;-81
2023/12/11 05:30:36;;;;;;;5.40;1.70;;;11.10;52.60;;;9.92;100.00;99375.84;4954509;28;20149;-79
2023/12/11 05:33:03;;;;;;;2.85;1.50;;;11.20;52.70;;;10.06;100.00;99380.56;4984475;28;20097;-79
2023/12/11 05:35:31;;;;;;;2.38;1.60;;;11.20;52.20;;;10.23;100.00;99389.56;4985904;28;20051;-81
2023/12/11 05:37:58;;;;;;;2.78;1.95;;;11.30;50.00;;;10.15;100.00;99387.22;4984579;28;20552;-79
2023/12/11 05:40:26;;;;;;;2.47;1.70;;;11.30;49.50;;;10.27;100.00;99408.72;4984458;28;21002;-78
2023/12/11 05:42:53;;;;;;;4.13;1.50;;;11.30;48.60;;;10.17;100.00;99401.16;4998914;28;20047;-78
2023/12/11 05:45:20;;;;;;;2.13;1.23;;;11.40;49.10;;;9.82;100.00;99348.19;4977437;28;20051;-78
2023/12/11 05:47:47;;;;;;;2.22;1.50;;;11.40;48.00;;;10.26;100.00;99404.38;4979649;28;20712;-78
2023/12/11 05:50:15;;;;;;;2.78;1.70;;;11.40;46.10;;;10.36;100.00;99438.16;4982001;28;20074;-78
2023/12/11 05:52:42;;;;;;;1.45;1.35;;;11.50;47.40;;;10.24;100.00;99399.16;4983132;28;20057;-78
2023/12/11 05:55:09;;;;;;;3.03;1.20;;;11.50;46.00;;;10.45;100.00;99417.69;4985230;28;20082;-79
2023/12/11 05:57:36;;;;;;;4.82;1.50;;;11.60;44.70;;;10.31;100.00;99377.00;4986365;28;20050;-80
2023/12/11 06:00:07;;;;;;;;;;;11.70;42.60;;;10.68;100.00;99423.84;4986060;28;20078;-78
2023/12/11 06:02:34;;;;;;;4.57;1.63;;;11.70;38.50;;;10.66;100.00;99421.25;4974777;28;19929;-78
2023/12/11 06:05:01;;;;;;;1.95;1.20;;;11.70;36.30;;;10.70;100.00;99432.53;4985369;28;20051;-76
2023/12/11 06:07:29;;;;;;;2.65;1.88;;;11.80;34.50;;;10.66;100.00;99420.41;4983813;28;20042;-76
2023/12/11 06:09:56;;;;;;;2.80;1.40;;;11.80;32.10;;;10.61;100.00;99417.97;4982236;28;20589;-76
2023/12/11 06:12:23;;;;;;;2.30;1.38;;;11.70;31.80;;;10.53;100.00;99402.47;4983867;28;20094;-76
2023/12/11 06:14:57;;;;;;;5.03;1.70;;;11.80;29.30;;;10.61;100.00;99426.72;4983432;28;20043;-76
2023/12/11 06:17:30;;;;;;;2.83;1.50;;;11.80;26.70;;;10.57;100.00;99390.91;4983566;28;20388;-76
2023/12/11 06:19:57;;;;;;;2.88;1.38;;;11.80;24.40;;;10.62;100.00;99402.13;4984025;28;20145;-76
2023/12/11 06:22:24;;;;;;;2.00;1.10;;;11.80;22.20;;;10.56;100.00;99368.16;4976471;28;20657;-76
2023/12/11 06:24:51;;;;;;;2.78;1.70;;;11.80;20.80;;;10.53;100.00;99376.19;4967616;28;20055;-76
2023/12/11 06:27:18;;;;;;;2.28;1.23;;;11.80;19.50;;;10.64;100.00;99381.00;4984088;28;20039;-76
2023/12/11 06:29:48;;;;;;;1.25;0.95;;;11.90;12.80;;;10.73;100.00;99391.16;4983804;28;20047;-76
2023/12/11 06:32:16;;;;;;;2.88;1.10;;;11.80;10.10;;;10.81;100.00;99408.41;4984048;28;20054;-75
2023/12/11 06:34:43;;;;;;;4.93;1.58;;;11.80;9.70;;;10.71;100.00;99403.53;4967292;28;20049;-75
2023/12/11 06:37:10;;;;;;;1.42;1.13;;;11.80;5.20;;;10.46;100.00;99379.97;4967557;28;20425;-75
2023/12/11 06:39:37;;;;;;;7.93;1.67;;;11.80;2.50;;;10.72;100.00;99413.13;4967749;28;20477;-76
2023/12/11 06:42:05;;;;;;;2.50;1.30;;;12.00;2.40;;;10.53;100.00;99375.31;4983719;28;20125;-76
2023/12/11 06:44:32;;;;;;;4.05;1.42;;;11.80;3.40;;;10.66;100.00;99391.47;4983119;28;20039;-75
2023/12/11 06:46:59;;;;;;;3.10;1.65;;;11.90;1.00;;;10.59;100.00;99380.34;4967512;28;20042;-76
2023/12/11 06:49:26;;;;;;;4.18;1.83;;;11.90;1.00;;;10.48;100.00;99360.56;4983237;28;20078;-75
2023/12/11 06:51:55;;;;;;;3.10;2.10;;;11.80;1.00;;;10.73;100.00;99385.03;4983482;28;20565;-76
2023/12/11 06:54:22;;;;;;;3.22;1.30;;;11.80;1.00;;;10.61;100.00;99365.34;4967033;28;20493;-75
2023/12/11 06:56:49;;;;;;;5.00;1.58;;;11.80;1.00;;;10.53;100.00;99360.41;4975726;28;20573;-75
2023/12/11 06:59:16;;;;;;;3.22;1.95;;;11.80;1.00;;;10.52;100.00;99355.19;4983271;28;20074;-76
2023/12/11 07:01:43;;;;;;;3.63;1.98;;;11.80;1.00;;;10.65;100.00;99393.25;4980993;28;20051;-74
2023/12/11 07:04:11;;;;;;;3.97;2.58;;;11.80;1.00;;;10.48;100.00;99370.25;4978041;28;20053;-75
2023/12/11 07:06:38;;;;;;;3.67;1.92;;;11.70;1.00;;;10.66;100.00;99375.69;4981303;28;20039;-76
2023/12/11 07:09:05;;;;;;;3.42;1.70;;;11.80;1.00;;;10.55;100.00;99360.34;4982971;28;20070;-76
2023/12/11 07:11:32;;;;;;;7.60;2.70;;;11.80;1.00;;;10.49;100.00;99369.34;4980411;28;20141;-76
2023/12/11 07:13:59;;;;;;;2.53;1.63;;;11.70;1.00;;;10.58;100.00;99383.88;4966725;28;20049;-76
2023/12/11 07:16:27;;;;;;;3.30;1.63;;;11.70;1.00;;;10.57;100.00;99387.44;4982578;28;20051;-75
2023/12/11 07:18:54;;;;;;;3.00;1.73;;;11.70;1.00;;;10.33;100.00;99366.41;4982955;28;20060;-76
2023/12/11 07:21:21;;;;;;;3.22;1.77;;;11.70;1.00;;;10.45;100.00;99388.75;4982821;28;20234;-76
2023/12/11 07:23:50;;;;;;;2.30;1.75;;;11.70;1.00;;;10.49;100.00;99390.38;4965688;28;20038;-76
2023/12/11 07:26:17;;;;;;;13.80;11.30;;;11.70;1.00;;;10.54;100.00;99387.56;4981856;28;20124;-76
2023/12/11 07:28:47;;;;;;;7.72;3.08;;;11.60;1.00;;;10.44;100.00;99382.66;4982708;28;20097;-76
2023/12/11 07:31:14;;;;;;;3.25;1.58;;;11.70;1.00;;;10.42;100.00;99370.47;4983314;28;20379;-76
2023/12/11 07:33:41;;;;;;;4.93;2.78;;;11.70;1.00;;;10.55;100.00;99391.91;4966580;28;20160;-75
2023/12/11 07:36:10;;;;;;;7.32;6.22;;;11.70;1.00;;;10.55;100.00;99387.50;4982171;28;20047;-76
2023/12/11 07:38:37;;;;;;;3.97;1.85;;;11.70;1.00;;;10.45;100.00;99371.22;4982359;28;20061;-75
2023/12/11 07:41:05;;;;;;;3.50;1.80;;;11.80;1.00;;;10.55;100.00;99392.75;4982464;28;20123;-76
2023/12/11 07:43:34;;;;;;;6.30;2.53;;;11.70;1.00;;;10.32;100.00;99351.56;4967605;28;20098;-76
2023/12/11 07:46:02;;;;;;;5.70;2.35;;;11.70;1.00;;;10.53;100.00;99391.09;4982133;28;20130;-75
2023/12/11 07:48:30;;;;;;;3.47;2.13;;;11.70;1.00;;;10.54;100.00;99382.31;4982349;28;20045;-75
2023/12/11 07:50:58;;;;;;;3.60;1.77;;;11.70;1.00;;;10.63;100.00;99400.34;4982450;28;20062;-75
2023/12/11 07:53:25;;;;;;;6.60;2.63;;;11.80;1.00;;;10.56;100.00;99380.47;4966663;28;20521;-75
2023/12/11 07:55:54;;;;;;;5.03;2.03;;;11.80;1.00;;;10.65;100.00;99387.97;4980851;28;20071;-76
2023/12/11 07:58:22;;;;;;;7.78;1.98;;;11.90;1.00;;;10.63;100.00;99389.81;4982341;28;20055;-76
2023/12/11 08:00:49;;;;;;;2.10;1.50;;;11.80;1.00;;;10.63;100.00;99388.06;4981427;28;20062;-76
2023/12/11 08:03:16;;;;;;;3.15;2.15;;;11.80;1.00;;;10.57;100.00;99379.56;4965301;28;20055;-75
2023/12/11 08:05:43;;;;;;;15.98;13.43;;;11.70;1.00;;;10.54;100.00;99369.16;4982107;28;20125;-76
2023/12/11 08:08:12;;;;;;;7.78;6.10;;;11.80;1.00;;;10.64;100.00;99386.25;4982186;28;20057;-76
2023/12/11 08:10:39;;;;;;;7.43;3.15;;;11.80;1.00;;;10.61;100.00;99384.63;4965926;28;20121;-76
2023/12/11 08:13:06;;;;;;;4.47;1.80;;;11.80;1.00;;;10.56;100.00;99389.19;4982083;28;20055;-75
2023/12/11 08:15:36;;;;;;;5.30;2.28;;;11.80;1.00;;;10.69;100.00;99401.88;4965533;28;20629;-75
2023/12/11 08:18:03;;;;;;;4.90;1.40;;;11.80;1.00;;;10.57;100.00;99380.38;4982192;28;20046;-76
2023/12/11 08:20:30;;;;;;;4.22;2.00;;;11.80;1.00;;;10.63;100.00;99395.06;4981469;28;20700;-76
2023/12/11 08:22:57;;;;;;;4.43;1.83;;;11.80;1.00;;;10.61;100.00;99396.91;4975941;28;20042;-75
2023/12/11 08:25:24;;;;;;;3.47;1.88;;;11.80;1.00;;;10.74;100.00;99397.28;4970025;28;20042;-76
2023/12/11 08:27:55;;;;;;;4.47;1.30;;;11.80;1.00;;;10.52;100.00;99356.06;4986355;28;20050;-76
2023/12/11 08:30:22;;;;;;;;;;;11.80;1.00;;;10.81;100.00;99395.25;4986554;28;20075;-76
2023/12/11 08:32:49;;;;;;;3.58;1.98;;;11.90;1.00;;;10.71;100.00;99390.38;4985908;28;19957;-76
2023/12/11 08:35:16;;;;;;;2.83;1.40;;;11.90;1.00;;;10.82;100.00;99399.59;4970609;28;20417;-75
2023/12/11 08:37:43;;;;;;;7.03;2.22;;;11.90;1.00;;;10.85;100.00;99407.34;4969650;28;20074;-76
2023/12/11 08:40:13;;;;;;;3.28;1.60;;;11.90;1.00;;;10.90;100.00;99402.78;4985929;28;20497;-76
2023/12/11 08:42:40;;;;;;;3.15;1.65;;;12.10;1.00;;;10.92;100.00;99404.41;4969742;28;20061;-75
2023/12/11 08:45:08;;;;;;;5.55;2.83;;;12.00;1.00;;;10.89;100.00;99408.97;4985676;28;20121;-76
2023/12/11 08:47:36;;;;;;;4.07;2.10;;;12.00;1.00;;;10.92;100.00;99420.19;4985960;28;20050;-76
2023/12/11 08:50:07;;;;;;;4.38;1.42;;;12.00;1.00;;;10.88;100.00;99396.72;4970576;28;20047;-75
2023/12/11 08:52:37;;;;;;;2.28;1.60;;;12.00;1.00;;;10.95;100.00;99408.69;4986118;28;20666;-76
2023/12/11 08:55:05;;;;;;;4.30;1.88;;;12.10;1.00;;;10.98;100.00;99421.72;4969278;28;20047;-76
2023/12/11 08:57:33;;;;;;;5.50;2.50;;;12.10;1.00;;;10.99;100.00;99433.13;4986683;28;20416;-76
2023/12/11 09:00:03;;;;;;;6.63;2.38;;;12.10;1.00;;;11.02;100.00;99431.25;4987324;28;20473;-76
2023/12/11 09:02:31;;;;;;;5.18;1.83;;;12.10;1.00;;;10.99;100.00;99428.72;4987026;28;20429;-76
2023/12/11 09:04:58;;;;;;;7.50;3.03;;;12.10;1.00;;;10.97;100.00;99424.44;4986428;28;20136;-77
2023/12/11 09:07:25;;;;;;;6.63;1.77;;;12.20;1.00;;;11.00;100.00;99432.22;4987173;28;20051;-76
2023/12/11 09:09:52;;;;;;;6.60;2.58;;;12.20;1.00;;;10.78;100.00;99406.78;4981425;28;20043;-77
2023/12/11 09:12:25;;;;;;;7.88;2.80;;;12.10;1.00;;;11.01;100.00;99441.81;4972143;28;20616;-76
2023/12/11 09:15:00;;;;;;;10.32;1.95;;;11.90;1.00;;;11.00;100.00;99430.41;4971662;28;20510;-76
2023/12/11 09:17:28;;;;;;;6.18;2.70;;;12.20;1.00;;;11.10;100.00;99462.50;4986766;28;20051;-76
2023/12/11 09:19:56;;;;;;;4.57;2.60;;;12.20;1.00;;;11.01;100.00;99445.31;4986913;28;20058;-76
2023/12/11 09:22:27;;;;;;;8.00;2.92;;;12.20;1.00;;;10.97;100.00;99448.13;4970538;28;20098;-76
2023/12/11 09:24:58;;;;;;;10.27;2.80;;;12.20;1.00;;;11.00;100.00;99450.63;4963065;28;20043;-77
2023/12/11 09:27:25;;;;;;;5.50;2.60;;;12.20;1.00;;;11.04;100.00;99457.47;4974263;28;20043;-77
2023/12/11 09:29:52;;;;;;;4.07;2.00;;;12.20;1.00;;;11.02;100.00;99454.94;4970427;28;20512;-76
2023/12/11 09:32:19;;;;;;;6.45;2.60;;;12.20;1.00;;;11.05;100.00;99460.06;4971090;28;20673;-78
2023/12/11 09:34:46;;;;;;;8.18;2.97;;;12.30;1.00;;;11.25;100.00;99475.97;4968704;28;20050;-76
2023/12/11 09:37:19;;;;;;;6.10;2.10;;;12.30;1.00;;;11.18;100.00;99462.19;4971579;28;20061;-77
2023/12/11 09:39:48;;;;;;;7.13;2.70;;;12.30;1.00;;;11.11;100.00;99461.59;4989158;28;20059;-78
2023/12/11 09:42:15;;;;;;;5.63;2.88;;;12.30;1.00;;;11.12;100.00;99458.03;4987939;28;20459;-77
2023/12/11 09:44:46;;;;;;;5.53;2.78;;;12.30;1.00;;;11.21;100.00;99468.19;4969925;28;20051;-76
2023/12/11 09:47:25;;;;;;;5.80;2.83;;;12.40;1.00;;;11.19;100.00;99470.03;4987459;28;20077;-78
2023/12/11 09:49:53;;;;;;;8.95;5.03;;;12.30;1.00;;;11.12;100.00;99447.50;4962971;28;20113;-77
2023/12/11 09:52:24;;;;;;;10.55;4.10;;;12.40;1.00;;;11.26;100.00;99464.53;4987856;28;20679;-78
2023/12/11 09:54:51;;;;;;;7.30;3.22;;;12.40;1.00;;;11.14;100.00;99456.19;4971470;28;20058;-77
2023/12/11 09:57:19;;;;;;;6.68;3.70;;;12.40;1.00;;;11.18;100.00;99449.88;4987633;28;20042;-76
2023/12/11 09:59:49;;;;;;;8.88;4.20;;;12.40;1.00;;;11.02;100.00;99420.72;4971697;28;21025;-75
2023/12/11 10:02:17;;;;;;;4.80;2.47;;;12.40;1.00;;;11.30;100.00;99450.28;4987620;28;20638;-76
2023/12/11 10:05:08;;;;;;;13.13;4.53;;;12.40;1.00;;;11.33;100.00;99464.19;4970034;28;20044;-77
2023/12/11 10:07:40;;;;;;;5.78;3.13;;;12.40;1.00;;;11.21;100.00;99447.09;4986316;28;20082;-78
2023/12/11 10:10:25;;;;;;;8.85;3.13;;;12.40;1.00;;;11.32;100.00;99469.53;4987082;28;20047;-77
2023/12/11 10:12:56;;;;;;;5.85;2.55;;;12.40;1.00;;;11.26;100.00;99446.09;4978449;28;20592;-78
2023/12/11 10:15:32;;;;;;;10.32;2.72;;;12.40;1.00;;;11.25;100.00;99441.75;4985835;28;20047;-76
2023/12/11 10:18:09;;;;;;;8.52;2.83;;;12.50;1.00;;;11.34;100.00;99450.09;4969845;28;20055;-78
2023/12/11 10:20:39;;;;;;;7.88;2.80;;;12.50;1.00;;;11.45;100.00;99454.91;4985358;28;20079;-78
2023/12/11 10:23:18;;;;;;;9.73;3.60;;;12.50;1.00;;;11.43;100.00;99448.00;4988370;28;20049;-78